sensor_id;sensor_type;location;lat;lon;timestamp;P1;durP1;ratioP1;P2;durP2;ratioP2
65855;SDS011;52631;42.208;24.656;2023-04-25T00:02:21;3.72;;;2.25;;
65855;SDS011;52631;42.208;24.656;2023-04-25T00:04:47;3.30;;;1.90;;
65855;SDS011;52631;42.208;24.656;2023-04-25T00:07:14;4.45;;;2.05;;
65855;SDS011;52631;42.208;24.656;2023-04-25T00:09:39;3.58;;;2.08;;
65855;SDS011;52631;42.208;24.656;2023-04-25T00:12:06;3.80;;;1.63;;
65855;SDS011;52631;42.208;24.656;2023-04-25T00:14:32;4.10;;;1.83;;
65855;SDS011;52631;42.208;24.656;2023-04-25T00:17:00;4.07;;;1.95;;
65855;SDS011;52631;42.208;24.656;2023-04-25T00:19:26;5.97;;;2.38;;
65855;SDS011;52631;42.208;24.656;2023-04-25T00:21:53;5.30;;;2.25;;
65855;SDS011;52631;42.208;24.656;2023-04-25T00:24:22;5.28;;;2.15;;
65855;SDS011;52631;42.208;24.656;2023-04-25T00:26:48;4.63;;;2.10;;
65855;SDS011;52631;42.208;24.656;2023-04-25T00:29:13;3.78;;;1.80;;
65855;SDS011;52631;42.208;24.656;2023-04-25T00:31:39;2.92;;;1.73;;
65855;SDS011;52631;42.208;24.656;2023-04-25T00:34:05;3.63;;;2.13;;
65855;SDS011;52631;42.208;24.656;2023-04-25T00:36:31;4.03;;;1.98;;
65855;SDS011;52631;42.208;24.656;2023-04-25T00:38:57;4.75;;;2.35;;
65855;SDS011;52631;42.208;24.656;2023-04-25T00:41:22;3.67;;;1.75;;
65855;SDS011;52631;42.208;24.656;2023-04-25T00:43:48;3.70;;;1.90;;
65855;SDS011;52631;42.208;24.656;2023-04-25T00:46:14;4.00;;;2.08;;
65855;SDS011;52631;42.208;24.656;2023-04-25T00:48:40;5.57;;;2.40;;
65855;SDS011;52631;42.208;24.656;2023-04-25T00:51:05;5.45;;;2.40;;
65855;SDS011;52631;42.208;24.656;2023-04-25T00:53:31;4.72;;;2.63;;
65855;SDS011;52631;42.208;24.656;2023-04-25T00:55:57;4.30;;;1.98;;
65855;SDS011;52631;42.208;24.656;2023-04-25T00:58:23;5.32;;;1.90;;
65855;SDS011;52631;42.208;24.656;2023-04-25T01:00:49;3.80;;;1.80;;
65855;SDS011;52631;42.208;24.656;2023-04-25T01:03:17;4.38;;;2.13;;
65855;SDS011;52631;42.208;24.656;2023-04-25T01:05:44;4.10;;;2.13;;
65855;SDS011;52631;42.208;24.656;2023-04-25T01:08:10;4.82;;;2.08;;
65855;SDS011;52631;42.208;24.656;2023-04-25T01:10:36;3.95;;;1.90;;
65855;SDS011;52631;42.208;24.656;2023-04-25T01:13:02;4.63;;;2.45;;
65855;SDS011;52631;42.208;24.656;2023-04-25T01:15:27;3.95;;;2.03;;
65855;SDS011;52631;42.208;24.656;2023-04-25T01:17:53;4.97;;;2.28;;
65855;SDS011;52631;42.208;24.656;2023-04-25T01:20:20;3.90;;;2.30;;
65855;SDS011;52631;42.208;24.656;2023-04-25T01:22:47;4.60;;;1.92;;
65855;SDS011;52631;42.208;24.656;2023-04-25T01:25:12;5.65;;;2.20;;
65855;SDS011;52631;42.208;24.656;2023-04-25T01:27:38;3.72;;;2.28;;
65855;SDS011;52631;42.208;24.656;2023-04-25T01:30:04;5.13;;;2.75;;
65855;SDS011;52631;42.208;24.656;2023-04-25T01:32:30;4.65;;;2.63;;
65855;SDS011;52631;42.208;24.656;2023-04-25T01:35:06;4.00;;;2.10;;
65855;SDS011;52631;42.208;24.656;2023-04-25T01:40:03;4.60;;;2.60;;
65855;SDS011;52631;42.208;24.656;2023-04-25T01:42:31;3.65;;;2.10;;
65855;SDS011;52631;42.208;24.656;2023-04-25T01:44:57;4.80;;;2.38;;
65855;SDS011;52631;42.208;24.656;2023-04-25T01:47:23;4.75;;;2.50;;
65855;SDS011;52631;42.208;24.656;2023-04-25T01:49:48;4.47;;;2.60;;
65855;SDS011;52631;42.208;24.656;2023-04-25T01:52:13;8.90;;;3.95;;
65855;SDS011;52631;42.208;24.656;2023-04-25T01:54:40;6.00;;;3.40;;
65855;SDS011;52631;42.208;24.656;2023-04-25T01:57:09;4.78;;;2.92;;
65855;SDS011;52631;42.208;24.656;2023-04-25T01:59:35;7.03;;;3.10;;
65855;SDS011;52631;42.208;24.656;2023-04-25T02:02:01;5.95;;;3.22;;
65855;SDS011;52631;42.208;24.656;2023-04-25T02:04:28;5.75;;;3.20;;
65855;SDS011;52631;42.208;24.656;2023-04-25T02:06:54;5.32;;;2.90;;
65855;SDS011;52631;42.208;24.656;2023-04-25T02:09:20;6.63;;;2.92;;
65855;SDS011;52631;42.208;24.656;2023-04-25T02:11:45;5.13;;;3.00;;
65855;SDS011;52631;42.208;24.656;2023-04-25T02:14:11;4.45;;;3.15;;
65855;SDS011;52631;42.208;24.656;2023-04-25T02:16:37;7.15;;;3.40;;
65855;SDS011;52631;42.208;24.656;2023-04-25T02:19:04;6.28;;;3.67;;
65855;SDS011;52631;42.208;24.656;2023-04-25T02:21:30;5.50;;;3.33;;
65855;SDS011;52631;42.208;24.656;2023-04-25T02:23:56;6.00;;;3.35;;
65855;SDS011;52631;42.208;24.656;2023-04-25T02:26:22;8.20;;;3.70;;
65855;SDS011;52631;42.208;24.656;2023-04-25T02:28:48;5.38;;;3.13;;
65855;SDS011;52631;42.208;24.656;2023-04-25T02:31:14;6.28;;;3.33;;
65855;SDS011;52631;42.208;24.656;2023-04-25T02:33:41;6.55;;;3.70;;
65855;SDS011;52631;42.208;24.656;2023-04-25T02:36:07;5.70;;;3.20;;
65855;SDS011;52631;42.208;24.656;2023-04-25T02:38:33;5.13;;;2.90;;
65855;SDS011;52631;42.208;24.656;2023-04-25T02:40:58;6.32;;;2.92;;
65855;SDS011;52631;42.208;24.656;2023-04-25T02:43:24;6.82;;;3.13;;
65855;SDS011;52631;42.208;24.656;2023-04-25T02:45:49;5.20;;;3.15;;
65855;SDS011;52631;42.208;24.656;2023-04-25T02:48:15;4.80;;;2.80;;
65855;SDS011;52631;42.208;24.656;2023-04-25T02:50:40;6.15;;;3.13;;
65855;SDS011;52631;42.208;24.656;2023-04-25T02:53:06;6.03;;;3.22;;
65855;SDS011;52631;42.208;24.656;2023-04-25T02:55:32;8.63;;;3.72;;
65855;SDS011;52631;42.208;24.656;2023-04-25T02:57:57;6.90;;;3.60;;
65855;SDS011;52631;42.208;24.656;2023-04-25T03:00:23;6.68;;;3.47;;
65855;SDS011;52631;42.208;24.656;2023-04-25T03:02:49;7.45;;;3.83;;
65855;SDS011;52631;42.208;24.656;2023-04-25T03:05:15;5.88;;;3.40;;
65855;SDS011;52631;42.208;24.656;2023-04-25T03:07:41;7.40;;;4.53;;
65855;SDS011;52631;42.208;24.656;2023-04-25T03:10:08;7.10;;;3.47;;
65855;SDS011;52631;42.208;24.656;2023-04-25T03:12:34;6.63;;;3.83;;
65855;SDS011;52631;42.208;24.656;2023-04-25T03:15:00;6.63;;;3.50;;
65855;SDS011;52631;42.208;24.656;2023-04-25T03:17:25;6.18;;;3.22;;
65855;SDS011;52631;42.208;24.656;2023-04-25T03:19:51;7.90;;;4.40;;
65855;SDS011;52631;42.208;24.656;2023-04-25T03:22:16;9.18;;;4.55;;
65855;SDS011;52631;42.208;24.656;2023-04-25T03:24:42;8.10;;;4.65;;
65855;SDS011;52631;42.208;24.656;2023-04-25T03:27:08;9.13;;;5.07;;
65855;SDS011;52631;42.208;24.656;2023-04-25T03:29:33;8.32;;;4.90;;
65855;SDS011;52631;42.208;24.656;2023-04-25T03:31:59;9.50;;;5.47;;
65855;SDS011;52631;42.208;24.656;2023-04-25T03:34:25;9.43;;;5.18;;
65855;SDS011;52631;42.208;24.656;2023-04-25T03:36:51;9.43;;;5.07;;
65855;SDS011;52631;42.208;24.656;2023-04-25T03:39:16;10.35;;;5.35;;
65855;SDS011;52631;42.208;24.656;2023-04-25T03:41:41;11.07;;;5.55;;
65855;SDS011;52631;42.208;24.656;2023-04-25T03:44:07;9.77;;;5.63;;
65855;SDS011;52631;42.208;24.656;2023-04-25T03:46:33;11.00;;;6.00;;
65855;SDS011;52631;42.208;24.656;2023-04-25T03:48:58;11.40;;;6.05;;
65855;SDS011;52631;42.208;24.656;2023-04-25T03:51:24;13.35;;;6.78;;
65855;SDS011;52631;42.208;24.656;2023-04-25T03:53:50;13.73;;;7.05;;
65855;SDS011;52631;42.208;24.656;2023-04-25T03:56:16;13.23;;;6.60;;
65855;SDS011;52631;42.208;24.656;2023-04-25T03:58:41;12.82;;;6.53;;
65855;SDS011;52631;42.208;24.656;2023-04-25T04:01:07;14.32;;;6.95;;
65855;SDS011;52631;42.208;24.656;2023-04-25T04:03:36;12.18;;;6.68;;
65855;SDS011;52631;42.208;24.656;2023-04-25T04:06:02;19.98;;;10.55;;
65855;SDS011;52631;42.208;24.656;2023-04-25T04:08:29;20.27;;;11.32;;
65855;SDS011;52631;42.208;24.656;2023-04-25T04:10:55;12.65;;;7.30;;
65855;SDS011;52631;42.208;24.656;2023-04-25T04:13:21;13.55;;;6.90;;
65855;SDS011;52631;42.208;24.656;2023-04-25T04:15:47;13.05;;;7.35;;
65855;SDS011;52631;42.208;24.656;2023-04-25T04:18:12;15.10;;;7.63;;
65855;SDS011;52631;42.208;24.656;2023-04-25T04:20:38;17.00;;;8.45;;
65855;SDS011;52631;42.208;24.656;2023-04-25T04:23:04;14.88;;;8.18;;
65855;SDS011;52631;42.208;24.656;2023-04-25T04:25:30;15.95;;;8.15;;
65855;SDS011;52631;42.208;24.656;2023-04-25T04:27:55;15.63;;;7.30;;
65855;SDS011;52631;42.208;24.656;2023-04-25T04:30:24;15.60;;;8.05;;
65855;SDS011;52631;42.208;24.656;2023-04-25T04:32:50;13.68;;;6.95;;
65855;SDS011;52631;42.208;24.656;2023-04-25T04:35:16;15.63;;;7.88;;
65855;SDS011;52631;42.208;24.656;2023-04-25T04:37:41;17.13;;;8.40;;
65855;SDS011;52631;42.208;24.656;2023-04-25T04:40:08;18.25;;;9.38;;
65855;SDS011;52631;42.208;24.656;2023-04-25T04:42:34;22.52;;;12.45;;
65855;SDS011;52631;42.208;24.656;2023-04-25T04:45:01;19.73;;;11.70;;
65855;SDS011;52631;42.208;24.656;2023-04-25T04:47:28;33.65;;;23.23;;
65855;SDS011;52631;42.208;24.656;2023-04-25T04:49:56;20.52;;;11.52;;
65855;SDS011;52631;42.208;24.656;2023-04-25T04:52:21;13.30;;;7.88;;
65855;SDS011;52631;42.208;24.656;2023-04-25T04:54:47;16.05;;;7.53;;
65855;SDS011;52631;42.208;24.656;2023-04-25T04:57:12;19.30;;;10.90;;
65855;SDS011;52631;42.208;24.656;2023-04-25T04:59:38;18.30;;;9.10;;
65855;SDS011;52631;42.208;24.656;2023-04-25T05:02:04;14.23;;;7.60;;
65855;SDS011;52631;42.208;24.656;2023-04-25T05:04:29;14.35;;;7.10;;
65855;SDS011;52631;42.208;24.656;2023-04-25T05:06:55;16.33;;;9.07;;
65855;SDS011;52631;42.208;24.656;2023-04-25T05:09:20;16.48;;;9.05;;
65855;SDS011;52631;42.208;24.656;2023-04-25T05:11:50;14.30;;;8.30;;
65855;SDS011;52631;42.208;24.656;2023-04-25T05:14:16;16.38;;;8.55;;
65855;SDS011;52631;42.208;24.656;2023-04-25T05:16:42;16.25;;;8.85;;
65855;SDS011;52631;42.208;24.656;2023-04-25T05:19:08;18.95;;;9.13;;
65855;SDS011;52631;42.208;24.656;2023-04-25T05:21:33;13.73;;;8.65;;
65855;SDS011;52631;42.208;24.656;2023-04-25T05:23:59;14.55;;;8.77;;
65855;SDS011;52631;42.208;24.656;2023-04-25T05:26:25;14.57;;;8.35;;
65855;SDS011;52631;42.208;24.656;2023-04-25T05:28:51;13.50;;;8.95;;
65855;SDS011;52631;42.208;24.656;2023-04-25T05:31:16;11.85;;;7.25;;
65855;SDS011;52631;42.208;24.656;2023-04-25T05:33:42;10.05;;;6.72;;
65855;SDS011;52631;42.208;24.656;2023-04-25T05:36:07;12.18;;;5.90;;
65855;SDS011;52631;42.208;24.656;2023-04-25T05:38:33;11.90;;;7.32;;
65855;SDS011;52631;42.208;24.656;2023-04-25T05:40:58;12.98;;;6.68;;
65855;SDS011;52631;42.208;24.656;2023-04-25T05:43:24;9.00;;;5.50;;
65855;SDS011;52631;42.208;24.656;2023-04-25T05:45:49;9.52;;;4.97;;
65855;SDS011;52631;42.208;24.656;2023-04-25T05:48:15;8.32;;;5.25;;
65855;SDS011;52631;42.208;24.656;2023-04-25T05:50:40;10.07;;;5.18;;
65855;SDS011;52631;42.208;24.656;2023-04-25T05:53:06;8.80;;;4.88;;
65855;SDS011;52631;42.208;24.656;2023-04-25T05:55:31;9.75;;;4.97;;
65855;SDS011;52631;42.208;24.656;2023-04-25T05:57:57;9.10;;;4.97;;
65855;SDS011;52631;42.208;24.656;2023-04-25T06:00:22;9.02;;;5.88;;
65855;SDS011;52631;42.208;24.656;2023-04-25T06:02:48;10.27;;;6.50;;
65855;SDS011;52631;42.208;24.656;2023-04-25T06:05:14;7.95;;;4.22;;
65855;SDS011;52631;42.208;24.656;2023-04-25T06:07:40;7.65;;;4.55;;
65855;SDS011;52631;42.208;24.656;2023-04-25T06:10:05;7.95;;;4.47;;
65855;SDS011;52631;42.208;24.656;2023-04-25T06:12:32;7.68;;;4.75;;
65855;SDS011;52631;42.208;24.656;2023-04-25T06:14:58;7.72;;;4.50;;
65855;SDS011;52631;42.208;24.656;2023-04-25T06:17:24;7.47;;;4.63;;
65855;SDS011;52631;42.208;24.656;2023-04-25T06:19:49;9.90;;;4.45;;
65855;SDS011;52631;42.208;24.656;2023-04-25T06:22:15;6.65;;;3.33;;
65855;SDS011;52631;42.208;24.656;2023-04-25T06:24:40;5.38;;;3.70;;
65855;SDS011;52631;42.208;24.656;2023-04-25T06:27:06;5.32;;;3.55;;
65855;SDS011;52631;42.208;24.656;2023-04-25T06:29:31;5.80;;;3.72;;
65855;SDS011;52631;42.208;24.656;2023-04-25T06:31:57;5.85;;;3.97;;
65855;SDS011;52631;42.208;24.656;2023-04-25T06:34:22;5.78;;;3.70;;
65855;SDS011;52631;42.208;24.656;2023-04-25T06:36:48;6.28;;;3.90;;
65855;SDS011;52631;42.208;24.656;2023-04-25T06:39:13;5.18;;;3.13;;
65855;SDS011;52631;42.208;24.656;2023-04-25T06:41:39;7.00;;;3.70;;
65855;SDS011;52631;42.208;24.656;2023-04-25T06:44:04;5.53;;;3.42;;
65855;SDS011;52631;42.208;24.656;2023-04-25T06:46:30;5.43;;;3.67;;
65855;SDS011;52631;42.208;24.656;2023-04-25T06:48:55;6.28;;;3.38;;
65855;SDS011;52631;42.208;24.656;2023-04-25T06:51:21;4.40;;;3.00;;
65855;SDS011;52631;42.208;24.656;2023-04-25T06:53:46;4.53;;;3.05;;
65855;SDS011;52631;42.208;24.656;2023-04-25T06:56:12;4.35;;;3.00;;
65855;SDS011;52631;42.208;24.656;2023-04-25T06:58:37;4.10;;;2.90;;
65855;SDS011;52631;42.208;24.656;2023-04-25T07:01:03;5.28;;;3.38;;
65855;SDS011;52631;42.208;24.656;2023-04-25T07:03:29;4.38;;;2.95;;
65855;SDS011;52631;42.208;24.656;2023-04-25T07:05:55;4.75;;;3.17;;
65855;SDS011;52631;42.208;24.656;2023-04-25T07:08:20;5.20;;;3.50;;
65855;SDS011;52631;42.208;24.656;2023-04-25T07:10:46;4.35;;;3.00;;
65855;SDS011;52631;42.208;24.656;2023-04-25T07:13:11;4.93;;;3.13;;
65855;SDS011;52631;42.208;24.656;2023-04-25T07:15:37;3.75;;;2.20;;
65855;SDS011;52631;42.208;24.656;2023-04-25T07:18:02;3.40;;;2.08;;
65855;SDS011;52631;42.208;24.656;2023-04-25T07:20:28;4.03;;;2.38;;
65855;SDS011;52631;42.208;24.656;2023-04-25T07:22:55;3.42;;;2.30;;
65855;SDS011;52631;42.208;24.656;2023-04-25T07:25:21;3.80;;;2.50;;
65855;SDS011;52631;42.208;24.656;2023-04-25T07:27:47;4.10;;;2.58;;
65855;SDS011;52631;42.208;24.656;2023-04-25T07:30:13;5.03;;;3.55;;
65855;SDS011;52631;42.208;24.656;2023-04-25T07:32:39;5.43;;;3.70;;
65855;SDS011;52631;42.208;24.656;2023-04-25T07:35:04;5.68;;;3.30;;
65855;SDS011;52631;42.208;24.656;2023-04-25T07:37:31;6.40;;;3.50;;
65855;SDS011;52631;42.208;24.656;2023-04-25T07:39:58;6.65;;;3.58;;
65855;SDS011;52631;42.208;24.656;2023-04-25T07:42:23;6.35;;;3.65;;
65855;SDS011;52631;42.208;24.656;2023-04-25T07:44:48;6.50;;;3.72;;
65855;SDS011;52631;42.208;24.656;2023-04-25T07:47:16;6.07;;;3.65;;
65855;SDS011;52631;42.208;24.656;2023-04-25T07:49:43;5.35;;;3.67;;
65855;SDS011;52631;42.208;24.656;2023-04-25T07:52:10;5.40;;;3.53;;
65855;SDS011;52631;42.208;24.656;2023-04-25T07:54:36;5.47;;;3.60;;
65855;SDS011;52631;42.208;24.656;2023-04-25T07:57:01;5.75;;;3.72;;
65855;SDS011;52631;42.208;24.656;2023-04-25T07:59:27;6.72;;;3.35;;
65855;SDS011;52631;42.208;24.656;2023-04-25T08:01:53;5.07;;;3.10;;
65855;SDS011;52631;42.208;24.656;2023-04-25T08:04:18;5.28;;;3.40;;
65855;SDS011;52631;42.208;24.656;2023-04-25T08:06:44;5.90;;;3.88;;
65855;SDS011;52631;42.208;24.656;2023-04-25T08:09:10;5.68;;;3.22;;
65855;SDS011;52631;42.208;24.656;2023-04-25T08:11:36;6.45;;;3.60;;
65855;SDS011;52631;42.208;24.656;2023-04-25T08:14:01;5.35;;;3.38;;
65855;SDS011;52631;42.208;24.656;2023-04-25T08:16:27;4.40;;;3.05;;
65855;SDS011;52631;42.208;24.656;2023-04-25T08:18:53;4.65;;;3.17;;
65855;SDS011;52631;42.208;24.656;2023-04-25T08:21:18;4.55;;;3.20;;
65855;SDS011;52631;42.208;24.656;2023-04-25T08:23:44;5.45;;;3.35;;
65855;SDS011;52631;42.208;24.656;2023-04-25T08:26:10;5.30;;;3.65;;
65855;SDS011;52631;42.208;24.656;2023-04-25T08:28:35;6.45;;;3.80;;
65855;SDS011;52631;42.208;24.656;2023-04-25T08:31:01;4.68;;;3.40;;
65855;SDS011;52631;42.208;24.656;2023-04-25T08:33:26;4.70;;;2.90;;
65855;SDS011;52631;42.208;24.656;2023-04-25T08:35:52;4.75;;;2.38;;
65855;SDS011;52631;42.208;24.656;2023-04-25T08:38:18;3.70;;;2.55;;
65855;SDS011;52631;42.208;24.656;2023-04-25T08:40:44;5.07;;;2.47;;
65855;SDS011;52631;42.208;24.656;2023-04-25T08:43:14;4.70;;;2.28;;
65855;SDS011;52631;42.208;24.656;2023-04-25T08:45:40;3.70;;;2.13;;
65855;SDS011;52631;42.208;24.656;2023-04-25T08:48:13;4.30;;;2.83;;
65855;SDS011;52631;42.208;24.656;2023-04-25T08:50:45;3.53;;;2.30;;
65855;SDS011;52631;42.208;24.656;2023-04-25T08:53:16;3.80;;;2.30;;
65855;SDS011;52631;42.208;24.656;2023-04-25T08:55:44;8.75;;;2.88;;
65855;SDS011;52631;42.208;24.656;2023-04-25T08:58:11;4.18;;;2.38;;
65855;SDS011;52631;42.208;24.656;2023-04-25T09:00:36;3.65;;;2.40;;
65855;SDS011;52631;42.208;24.656;2023-04-25T09:03:02;4.18;;;2.53;;
65855;SDS011;52631;42.208;24.656;2023-04-25T09:05:28;5.35;;;2.67;;
65855;SDS011;52631;42.208;24.656;2023-04-25T09:07:54;3.53;;;2.47;;
65855;SDS011;52631;42.208;24.656;2023-04-25T09:10:19;4.70;;;2.72;;
65855;SDS011;52631;42.208;24.656;2023-04-25T09:12:44;4.97;;;2.10;;
65855;SDS011;52631;42.208;24.656;2023-04-25T09:17:57;4.05;;;2.80;;
65855;SDS011;52631;42.208;24.656;2023-04-25T09:20:23;3.92;;;2.47;;
65855;SDS011;52631;42.208;24.656;2023-04-25T09:22:49;3.70;;;2.38;;
65855;SDS011;52631;42.208;24.656;2023-04-25T09:25:27;4.10;;;2.20;;
65855;SDS011;52631;42.208;24.656;2023-04-25T09:28:00;3.50;;;2.10;;
65855;SDS011;52631;42.208;24.656;2023-04-25T09:30:29;3.67;;;2.13;;
65855;SDS011;52631;42.208;24.656;2023-04-25T09:33:05;3.78;;;2.10;;
65855;SDS011;52631;42.208;24.656;2023-04-25T09:35:42;3.67;;;2.03;;
65855;SDS011;52631;42.208;24.656;2023-04-25T09:38:12;3.50;;;1.98;;
65855;SDS011;52631;42.208;24.656;2023-04-25T09:40:42;3.53;;;2.30;;
65855;SDS011;52631;42.208;24.656;2023-04-25T09:43:09;4.45;;;1.90;;
65855;SDS011;52631;42.208;24.656;2023-04-25T09:45:42;3.20;;;1.95;;
65855;SDS011;52631;42.208;24.656;2023-04-25T09:48:11;4.15;;;2.60;;
65855;SDS011;52631;42.208;24.656;2023-04-25T09:50:37;3.40;;;2.00;;
65855;SDS011;52631;42.208;24.656;2023-04-25T09:53:04;2.70;;;1.80;;
65855;SDS011;52631;42.208;24.656;2023-04-25T09:55:31;2.83;;;1.70;;
65855;SDS011;52631;42.208;24.656;2023-04-25T09:57:57;3.38;;;2.30;;
65855;SDS011;52631;42.208;24.656;2023-04-25T10:00:25;3.63;;;1.95;;
65855;SDS011;52631;42.208;24.656;2023-04-25T10:02:51;3.70;;;1.75;;
65855;SDS011;52631;42.208;24.656;2023-04-25T10:05:17;3.30;;;2.10;;
65855;SDS011;52631;42.208;24.656;2023-04-25T10:07:43;3.53;;;1.77;;
65855;SDS011;52631;42.208;24.656;2023-04-25T10:10:09;2.97;;;1.88;;
65855;SDS011;52631;42.208;24.656;2023-04-25T10:12:37;3.45;;;2.28;;
65855;SDS011;52631;42.208;24.656;2023-04-25T10:15:05;3.67;;;2.72;;
65855;SDS011;52631;42.208;24.656;2023-04-25T10:17:32;4.80;;;2.92;;
65855;SDS011;52631;42.208;24.656;2023-04-25T10:19:59;4.32;;;3.10;;
65855;SDS011;52631;42.208;24.656;2023-04-25T10:22:32;4.00;;;2.78;;
65855;SDS011;52631;42.208;24.656;2023-04-25T10:25:00;5.47;;;2.60;;
65855;SDS011;52631;42.208;24.656;2023-04-25T10:27:29;4.78;;;2.40;;
65855;SDS011;52631;42.208;24.656;2023-04-25T10:32:33;3.17;;;1.77;;
65855;SDS011;52631;42.208;24.656;2023-04-25T10:35:09;3.88;;;2.40;;
65855;SDS011;52631;42.208;24.656;2023-04-25T10:37:36;3.50;;;2.22;;
65855;SDS011;52631;42.208;24.656;2023-04-25T10:40:08;4.30;;;2.22;;
65855;SDS011;52631;42.208;24.656;2023-04-25T10:42:35;2.85;;;1.92;;
65855;SDS011;52631;42.208;24.656;2023-04-25T10:45:01;3.75;;;2.10;;
65855;SDS011;52631;42.208;24.656;2023-04-25T10:47:34;3.38;;;2.17;;
65855;SDS011;52631;42.208;24.656;2023-04-25T10:50:04;5.93;;;2.30;;
65855;SDS011;52631;42.208;24.656;2023-04-25T10:52:32;4.57;;;2.22;;
65855;SDS011;52631;42.208;24.656;2023-04-25T10:54:58;3.10;;;2.10;;
65855;SDS011;52631;42.208;24.656;2023-04-25T10:57:27;3.33;;;2.30;;
65855;SDS011;52631;42.208;24.656;2023-04-25T11:02:44;3.30;;;1.83;;
65855;SDS011;52631;42.208;24.656;2023-04-25T11:07:55;3.38;;;2.00;;
65855;SDS011;52631;42.208;24.656;2023-04-25T11:10:28;3.55;;;2.00;;
65855;SDS011;52631;42.208;24.656;2023-04-25T11:12:54;3.20;;;1.88;;
65855;SDS011;52631;42.208;24.656;2023-04-25T11:15:20;2.95;;;1.90;;
65855;SDS011;52631;42.208;24.656;2023-04-25T11:17:46;3.33;;;2.35;;
65855;SDS011;52631;42.208;24.656;2023-04-25T11:20:12;3.75;;;1.77;;
65855;SDS011;52631;42.208;24.656;2023-04-25T11:22:39;3.78;;;1.90;;
65855;SDS011;52631;42.208;24.656;2023-04-25T11:25:09;2.95;;;1.70;;
65855;SDS011;52631;42.208;24.656;2023-04-25T11:27:49;2.30;;;1.60;;
65855;SDS011;52631;42.208;24.656;2023-04-25T11:30:18;3.00;;;1.80;;
65855;SDS011;52631;42.208;24.656;2023-04-25T11:32:44;4.53;;;2.25;;
65855;SDS011;52631;42.208;24.656;2023-04-25T11:35:10;2.88;;;1.95;;
65855;SDS011;52631;42.208;24.656;2023-04-25T11:37:36;3.40;;;1.95;;
65855;SDS011;52631;42.208;24.656;2023-04-25T11:40:04;2.78;;;1.80;;
65855;SDS011;52631;42.208;24.656;2023-04-25T11:42:31;4.28;;;2.00;;
65855;SDS011;52631;42.208;24.656;2023-04-25T11:44:58;3.13;;;2.15;;
65855;SDS011;52631;42.208;24.656;2023-04-25T11:47:30;3.55;;;1.80;;
65855;SDS011;52631;42.208;24.656;2023-04-25T11:50:00;3.10;;;1.95;;
65855;SDS011;52631;42.208;24.656;2023-04-25T11:52:42;4.80;;;2.10;;
65855;SDS011;52631;42.208;24.656;2023-04-25T11:55:10;2.72;;;1.60;;
65855;SDS011;52631;42.208;24.656;2023-04-25T11:57:38;2.92;;;1.75;;
65855;SDS011;52631;42.208;24.656;2023-04-25T12:00:06;3.83;;;1.70;;
65855;SDS011;52631;42.208;24.656;2023-04-25T12:02:36;4.38;;;2.08;;
65855;SDS011;52631;42.208;24.656;2023-04-25T12:05:02;3.40;;;1.75;;
65855;SDS011;52631;42.208;24.656;2023-04-25T12:07:31;4.93;;;2.17;;
65855;SDS011;52631;42.208;24.656;2023-04-25T12:09:57;2.72;;;1.75;;
65855;SDS011;52631;42.208;24.656;2023-04-25T12:12:26;2.88;;;1.73;;
65855;SDS011;52631;42.208;24.656;2023-04-25T12:14:52;2.95;;;1.90;;
65855;SDS011;52631;42.208;24.656;2023-04-25T12:17:20;3.13;;;1.83;;
65855;SDS011;52631;42.208;24.656;2023-04-25T12:19:46;2.60;;;1.60;;
65855;SDS011;52631;42.208;24.656;2023-04-25T12:22:18;4.78;;;1.92;;
65855;SDS011;52631;42.208;24.656;2023-04-25T12:24:48;3.08;;;2.03;;
65855;SDS011;52631;42.208;24.656;2023-04-25T12:27:14;3.58;;;1.58;;
65855;SDS011;52631;42.208;24.656;2023-04-25T12:29:49;3.70;;;1.55;;
65855;SDS011;52631;42.208;24.656;2023-04-25T12:32:19;2.90;;;1.52;;
65855;SDS011;52631;42.208;24.656;2023-04-25T12:34:45;3.33;;;1.50;;
65855;SDS011;52631;42.208;24.656;2023-04-25T12:37:11;3.22;;;1.70;;
65855;SDS011;52631;42.208;24.656;2023-04-25T12:39:36;3.38;;;1.33;;
65855;SDS011;52631;42.208;24.656;2023-04-25T12:42:02;2.55;;;1.58;;
65855;SDS011;52631;42.208;24.656;2023-04-25T12:44:28;3.67;;;1.60;;
65855;SDS011;52631;42.208;24.656;2023-04-25T12:46:53;3.35;;;1.67;;
65855;SDS011;52631;42.208;24.656;2023-04-25T12:49:19;2.88;;;1.77;;
65855;SDS011;52631;42.208;24.656;2023-04-25T12:51:45;5.55;;;3.20;;
65855;SDS011;52631;42.208;24.656;2023-04-25T12:54:11;3.55;;;2.13;;
65855;SDS011;52631;42.208;24.656;2023-04-25T12:56:37;3.58;;;1.50;;
65855;SDS011;52631;42.208;24.656;2023-04-25T12:59:03;3.03;;;1.85;;
65855;SDS011;52631;42.208;24.656;2023-04-25T13:01:28;5.43;;;2.22;;
65855;SDS011;52631;42.208;24.656;2023-04-25T13:03:54;3.80;;;2.08;;
65855;SDS011;52631;42.208;24.656;2023-04-25T13:06:20;4.28;;;2.80;;
65855;SDS011;52631;42.208;24.656;2023-04-25T13:08:46;5.30;;;2.25;;
65855;SDS011;52631;42.208;24.656;2023-04-25T13:11:12;5.50;;;3.03;;
65855;SDS011;52631;42.208;24.656;2023-04-25T13:13:39;4.10;;;2.67;;
65855;SDS011;52631;42.208;24.656;2023-04-25T13:16:05;3.83;;;2.10;;
65855;SDS011;52631;42.208;24.656;2023-04-25T13:18:31;5.18;;;3.03;;
65855;SDS011;52631;42.208;24.656;2023-04-25T13:20:57;3.70;;;2.70;;
65855;SDS011;52631;42.208;24.656;2023-04-25T13:23:24;3.38;;;1.92;;
65855;SDS011;52631;42.208;24.656;2023-04-25T13:25:50;4.47;;;2.15;;
65855;SDS011;52631;42.208;24.656;2023-04-25T13:28:15;4.07;;;2.00;;
65855;SDS011;52631;42.208;24.656;2023-04-25T13:30:41;4.88;;;2.05;;
65855;SDS011;52631;42.208;24.656;2023-04-25T13:33:07;4.57;;;2.28;;
65855;SDS011;52631;42.208;24.656;2023-04-25T13:35:33;3.95;;;2.53;;
65855;SDS011;52631;42.208;24.656;2023-04-25T13:37:59;3.42;;;1.88;;
65855;SDS011;52631;42.208;24.656;2023-04-25T13:40:26;4.00;;;2.00;;
65855;SDS011;52631;42.208;24.656;2023-04-25T13:42:52;4.75;;;2.50;;
65855;SDS011;52631;42.208;24.656;2023-04-25T13:45:17;5.97;;;2.70;;
65855;SDS011;52631;42.208;24.656;2023-04-25T13:47:43;6.25;;;3.35;;
65855;SDS011;52631;42.208;24.656;2023-04-25T13:50:09;3.75;;;2.30;;
65855;SDS011;52631;42.208;24.656;2023-04-25T13:52:35;4.28;;;2.40;;
65855;SDS011;52631;42.208;24.656;2023-04-25T13:55:00;3.25;;;2.10;;
65855;SDS011;52631;42.208;24.656;2023-04-25T13:57:28;3.50;;;2.00;;
65855;SDS011;52631;42.208;24.656;2023-04-25T13:59:54;2.92;;;1.80;;
65855;SDS011;52631;42.208;24.656;2023-04-25T14:02:19;3.30;;;1.70;;
65855;SDS011;52631;42.208;24.656;2023-04-25T14:04:45;3.55;;;1.80;;
65855;SDS011;52631;42.208;24.656;2023-04-25T14:07:10;3.58;;;1.60;;
65855;SDS011;52631;42.208;24.656;2023-04-25T14:09:36;3.22;;;1.65;;
65855;SDS011;52631;42.208;24.656;2023-04-25T14:12:02;3.20;;;1.58;;
65855;SDS011;52631;42.208;24.656;2023-04-25T14:14:28;2.40;;;1.60;;
65855;SDS011;52631;42.208;24.656;2023-04-25T14:16:53;2.58;;;1.70;;
65855;SDS011;52631;42.208;24.656;2023-04-25T14:19:19;4.93;;;1.58;;
65855;SDS011;52631;42.208;24.656;2023-04-25T14:21:46;2.58;;;1.40;;
65855;SDS011;52631;42.208;24.656;2023-04-25T14:24:13;4.95;;;1.52;;
65855;SDS011;52631;42.208;24.656;2023-04-25T14:26:39;3.40;;;1.40;;
65855;SDS011;52631;42.208;24.656;2023-04-25T14:29:04;2.45;;;1.35;;
65855;SDS011;52631;42.208;24.656;2023-04-25T14:31:31;2.30;;;1.50;;
65855;SDS011;52631;42.208;24.656;2023-04-25T14:33:57;3.08;;;1.27;;
65855;SDS011;52631;42.208;24.656;2023-04-25T14:36:22;3.05;;;1.30;;
65855;SDS011;52631;42.208;24.656;2023-04-25T14:38:48;2.05;;;1.17;;
65855;SDS011;52631;42.208;24.656;2023-04-25T14:41:13;1.73;;;0.88;;
65855;SDS011;52631;42.208;24.656;2023-04-25T14:43:39;2.55;;;1.10;;